createdAt,value
2023-04-04T00:00:05.944Z,2.50
2023-04-04T00:02:36.636Z,3.30
2023-04-04T00:05:06.302Z,2.25
2023-04-04T00:07:35.449Z,2.15
2023-04-04T00:10:04.603Z,2.17
2023-04-04T00:12:33.607Z,2.90
2023-04-04T00:15:03.014Z,2.65
2023-04-04T00:17:32.128Z,2.30
2023-04-04T00:20:04.448Z,2.60
2023-04-04T00:22:33.472Z,2.15
2023-04-04T00:25:02.370Z,2.00
2023-04-04T00:27:31.507Z,1.98
2023-04-04T00:30:00.566Z,2.67
2023-04-04T00:32:29.498Z,2.53
2023-04-04T00:34:58.991Z,2.92
2023-04-04T00:37:29.315Z,2.33
2023-04-04T00:39:58.325Z,3.20
2023-04-04T00:42:28.685Z,2.40
2023-04-04T00:44:58.377Z,2.45
2023-04-04T00:47:31.316Z,2.22
2023-04-04T00:50:00.390Z,3.53
2023-04-04T00:52:31.142Z,2.63
2023-04-04T00:55:01.202Z,2.50
2023-04-04T00:57:31.146Z,2.40
2023-04-04T01:00:00.724Z,3.05
2023-04-04T01:02:29.874Z,3.33
2023-04-04T01:04:59.061Z,2.63
2023-04-04T01:07:30.153Z,2.55
2023-04-04T01:09:59.913Z,2.90
2023-04-04T01:12:29.600Z,2.88
2023-04-04T01:14:59.046Z,3.28
2023-04-04T01:17:28.769Z,2.20
2023-04-04T01:20:04.568Z,2.10
2023-04-04T01:22:43.587Z,2.42
2023-04-04T01:25:14.720Z,2.58
2023-04-04T01:27:48.537Z,2.80
2023-04-04T01:30:21.017Z,2.85
2023-04-04T01:32:55.702Z,2.35
2023-04-04T01:35:32.098Z,2.05
2023-04-04T01:38:09.781Z,2.58
2023-04-04T01:40:43.068Z,3.28
2023-04-04T01:43:13.681Z,1.90
2023-04-04T01:45:45.008Z,2.55
2023-04-04T01:48:16.832Z,1.75
2023-04-04T01:50:49.585Z,2.15
2023-04-04T01:53:18.820Z,2.03
2023-04-04T01:55:47.965Z,3.50
2023-04-04T01:58:20.383Z,2.28
2023-04-04T02:00:49.505Z,2.78
2023-04-04T02:03:18.761Z,3.78
2023-04-04T02:05:48.275Z,3.03
2023-04-04T02:08:18.150Z,4.20
2023-04-04T02:10:53.513Z,3.20
2023-04-04T02:13:24.220Z,3.10
2023-04-04T02:15:54.842Z,3.40
2023-04-04T02:18:24.753Z,2.90
2023-04-04T02:20:58.306Z,3.00
2023-04-04T02:23:27.453Z,2.30
2023-04-04T02:25:56.892Z,2.00
2023-04-04T02:28:29.447Z,2.53
2023-04-04T02:31:01.804Z,3.50
2023-04-04T02:33:31.929Z,1.80
2023-04-04T02:36:04.963Z,2.47
2023-04-04T02:38:34.325Z,2.17
2023-04-04T02:41:07.132Z,3.22
2023-04-04T02:43:37.642Z,3.17
2023-04-04T02:46:20.657Z,2.22
2023-04-04T02:48:52.382Z,2.42
2023-04-04T02:51:21.883Z,2.80
2023-04-04T02:53:51.222Z,3.08
2023-04-04T02:56:28.849Z,2.53
2023-04-04T02:59:00.369Z,2.10
2023-04-04T03:01:29.490Z,3.15
2023-04-04T03:04:03.796Z,2.45
2023-04-04T03:06:34.797Z,2.00
2023-04-04T03:09:05.110Z,2.10
2023-04-04T03:11:34.348Z,2.53
2023-04-04T03:14:05.368Z,2.00
2023-04-04T03:16:38.951Z,2.50
2023-04-04T03:19:09.006Z,2.53
2023-04-04T03:21:38.168Z,5.00
2023-04-04T03:24:08.481Z,3.90
2023-04-04T03:26:37.724Z,2.10
2023-04-04T03:30:02.570Z,3.03
2023-04-04T03:32:37.339Z,2.10
2023-04-04T03:35:07.204Z,3.15
2023-04-04T03:37:36.736Z,2.13
2023-04-04T03:40:06.390Z,2.88
2023-04-04T03:42:35.751Z,2.03
2023-04-04T03:45:10.835Z,2.15
2023-04-04T03:47:42.516Z,2.10
2023-04-04T03:50:12.467Z,2.30
2023-04-04T03:52:48.726Z,2.47
2023-04-04T03:55:17.987Z,2.05
2023-04-04T03:57:47.917Z,2.83
2023-04-04T04:00:18.211Z,2.55
2023-04-04T04:02:49.149Z,2.80
2023-04-04T04:05:18.459Z,2.30
2023-04-04T04:07:47.998Z,2.70
2023-04-04T04:10:17.177Z,2.42
2023-04-04T04:12:47.547Z,2.75
2023-04-04T04:15:17.217Z,2.65
2023-04-04T04:17:49.165Z,2.00
2023-04-04T04:20:19.072Z,2.97
2023-04-04T04:22:54.110Z,2.30
2023-04-04T04:25:23.888Z,2.58
2023-04-04T04:28:12.490Z,2.08
2023-04-04T04:30:42.319Z,2.55
2023-04-04T04:33:13.701Z,3.58
2023-04-04T04:36:03.480Z,3.85
2023-04-04T04:38:41.731Z,3.63
2023-04-04T04:41:11.156Z,3.22
2023-04-04T04:43:49.867Z,3.40
2023-04-04T04:46:19.202Z,3.45
2023-04-04T04:48:50.088Z,2.90
2023-04-04T04:51:27.547Z,4.80
2023-04-04T04:53:58.421Z,3.92
2023-04-04T04:56:29.581Z,3.15
2023-04-04T04:59:07.543Z,2.60
2023-04-04T05:01:39.295Z,2.80
2023-04-04T05:04:10.105Z,2.63
2023-04-04T05:06:44.908Z,3.28
2023-04-04T05:09:15.553Z,2.40
2023-04-04T05:11:44.740Z,3.05
2023-04-04T05:14:15.358Z,3.95
2023-04-04T05:16:55.456Z,2.50
2023-04-04T05:19:33.763Z,3.13
2023-04-04T05:22:04.266Z,3.00
2023-04-04T05:24:43.004Z,2.47
2023-04-04T05:27:15.214Z,2.72
2023-04-04T05:29:49.839Z,2.60
2023-04-04T05:32:18.978Z,2.92
2023-04-04T05:34:57.250Z,2.28
2023-04-04T05:37:26.528Z,2.88
2023-04-04T05:39:56.311Z,3.22
2023-04-04T05:42:27.224Z,2.95
2023-04-04T05:44:59.838Z,3.63
2023-04-04T05:47:32.131Z,4.15
2023-04-04T05:50:04.306Z,2.47
2023-04-04T05:52:35.649Z,3.38
2023-04-04T05:55:05.319Z,2.40
2023-04-04T05:57:35.512Z,4.05
2023-04-04T06:00:06.109Z,2.80
2023-04-04T06:02:43.609Z,2.50
2023-04-04T06:05:20.314Z,3.75
2023-04-04T06:07:49.810Z,3.85
2023-04-04T06:10:19.117Z,2.80
2023-04-04T06:12:48.167Z,2.63
2023-04-04T06:15:17.910Z,2.63
2023-04-04T06:17:47.463Z,3.15
2023-04-04T06:20:19.326Z,7.82
2023-04-04T06:22:49.610Z,10.85
2023-04-04T06:25:19.630Z,8.68
2023-04-04T06:27:49.667Z,3.08
2023-04-04T06:30:19.059Z,15.38
2023-04-04T06:32:52.569Z,3.58
2023-04-04T06:35:26.265Z,3.20
2023-04-04T06:38:01.715Z,5.30
2023-04-04T06:40:31.750Z,2.83
2023-04-04T06:43:01.928Z,8.73
2023-04-04T06:45:37.820Z,4.50
2023-04-04T06:48:07.147Z,2.40
2023-04-04T06:50:38.082Z,4.55
2023-04-04T06:53:10.910Z,10.02
2023-04-04T06:55:40.232Z,3.55
2023-04-04T06:58:09.333Z,3.92
2023-04-04T07:00:38.875Z,2.92
2023-04-04T07:03:08.248Z,3.58
2023-04-04T07:05:41.432Z,1.80
2023-04-04T07:08:11.579Z,2.45
2023-04-04T07:10:41.508Z,1.90
2023-04-04T07:13:11.262Z,1.35
2023-04-04T07:15:40.584Z,1.85
2023-04-04T07:18:10.204Z,2.17
2023-04-04T07:20:40.966Z,2.50
2023-04-04T07:23:10.354Z,2.20
2023-04-04T07:25:41.872Z,2.15
2023-04-04T07:28:13.491Z,2.45
2023-04-04T07:30:43.223Z,2.28
2023-04-04T07:33:18.551Z,2.58
2023-04-04T07:35:49.255Z,2.17
2023-04-04T07:38:19.024Z,3.13
2023-04-04T07:40:49.747Z,2.55
2023-04-04T07:43:18.962Z,2.38
2023-04-04T07:45:48.036Z,3.20
2023-04-04T07:48:17.379Z,2.63
2023-04-04T07:50:47.824Z,1.25
2023-04-04T07:53:16.952Z,3.17
2023-04-04T07:55:46.365Z,2.65
2023-04-04T07:58:15.666Z,1.80
2023-04-04T08:00:44.764Z,1.90
2023-04-04T08:03:15.183Z,2.13
2023-04-04T08:05:44.390Z,3.08
2023-04-04T08:08:15.091Z,2.42
2023-04-04T08:10:45.484Z,1.95
2023-04-04T08:13:14.753Z,1.20
2023-04-04T08:15:43.910Z,2.45
2023-04-04T08:18:13.054Z,2.22
2023-04-04T08:20:42.760Z,1.23
2023-04-04T08:23:13.613Z,1.60
2023-04-04T08:25:44.175Z,1.65
2023-04-04T08:28:14.031Z,1.52
2023-04-04T08:30:43.322Z,1.25
2023-04-04T08:33:12.782Z,2.22
2023-04-04T08:35:42.046Z,2.83
2023-04-04T08:38:11.436Z,1.42
2023-04-04T08:40:42.704Z,1.92
2023-04-04T08:43:14.010Z,2.03
2023-04-04T08:45:44.999Z,2.30
2023-04-04T08:48:15.444Z,1.77
2023-04-04T08:50:45.300Z,2.70
2023-04-04T08:53:15.879Z,1.98
2023-04-04T08:55:46.676Z,1.50
2023-04-04T08:58:17.514Z,1.63
2023-04-04T09:00:46.843Z,1.90
2023-04-04T09:03:21.830Z,2.15
2023-04-04T09:05:52.567Z,1.70
2023-04-04T09:08:23.871Z,1.95
2023-04-04T09:10:55.487Z,1.70
2023-04-04T09:13:24.676Z,1.55
2023-04-04T09:15:55.351Z,1.70
2023-04-04T09:18:24.712Z,2.85
2023-04-04T09:20:54.063Z,1.38
2023-04-04T09:23:24.030Z,1.90
2023-04-04T09:26:04.097Z,1.63
2023-04-04T09:28:35.062Z,1.40
2023-04-04T09:31:06.172Z,1.33
2023-04-04T09:33:36.545Z,1.90
2023-04-04T09:36:10.464Z,3.00
2023-04-04T09:38:43.341Z,1.63
2023-04-04T09:41:17.021Z,5.03
2023-04-04T09:43:47.930Z,2.78
2023-04-04T09:46:20.386Z,4.15
2023-04-04T09:48:53.808Z,8.20
2023-04-04T09:51:23.021Z,2.28
2023-04-04T09:53:53.367Z,11.43
2023-04-04T09:56:24.148Z,11.25
2023-04-04T09:59:03.115Z,23.65
2023-04-04T10:01:34.483Z,34.72
2023-04-04T10:04:06.913Z,22.60
2023-04-04T10:06:38.891Z,1.08
2023-04-04T10:09:10.226Z,2.35
2023-04-04T10:11:40.787Z,2.85
2023-04-04T10:14:12.382Z,9.93
2023-04-04T10:16:46.961Z,1.35
2023-04-04T10:19:19.205Z,1.48
2023-04-04T10:21:49.221Z,1.23
2023-04-04T10:24:19.212Z,1.23
2023-04-04T10:26:49.817Z,2.45
2023-04-04T10:29:21.041Z,1.33
2023-04-04T10:31:55.657Z,1.15
2023-04-04T10:34:31.361Z,9.13
2023-04-04T10:37:10.102Z,2.47
2023-04-04T10:39:46.178Z,1.13
2023-04-04T10:42:18.343Z,1.58
2023-04-04T10:44:48.539Z,1.20
2023-04-04T10:47:21.951Z,1.85
2023-04-04T10:49:52.332Z,0.90
2023-04-04T10:52:24.115Z,1.40
2023-04-04T10:54:56.964Z,1.25
2023-04-04T10:57:28.901Z,1.38
2023-04-04T10:59:59.085Z,1.33
2023-04-04T11:02:59.562Z,2.78
2023-04-04T11:05:33.381Z,0.95
2023-04-04T11:08:08.701Z,1.65
2023-04-04T11:10:39.705Z,1.10
2023-04-04T11:13:16.462Z,1.30
2023-04-04T11:15:54.756Z,0.90
2023-04-04T11:18:50.958Z,1.05
2023-04-04T11:21:24.224Z,1.38
2023-04-04T11:24:15.868Z,1.33
2023-04-04T11:26:47.437Z,1.17
2023-04-04T11:29:44.902Z,1.70
2023-04-04T11:32:30.710Z,1.20
2023-04-04T11:35:00.107Z,1.13
2023-04-04T11:37:36.004Z,1.33
2023-04-04T11:40:14.151Z,1.10
2023-04-04T11:42:45.130Z,1.30
2023-04-04T11:45:21.521Z,1.02
2023-04-04T11:47:51.736Z,1.17
2023-04-04T11:50:21.010Z,1.42
2023-04-04T11:52:53.799Z,0.93
2023-04-04T11:55:23.897Z,0.80
2023-04-04T11:57:55.631Z,1.25
2023-04-04T12:00:36.002Z,1.65
2023-04-04T12:03:07.257Z,0.95
2023-04-04T12:05:37.179Z,1.05
2023-04-04T12:08:08.546Z,1.15
2023-04-04T12:10:38.551Z,1.20
2023-04-04T12:13:09.063Z,0.90
2023-04-04T12:15:40.050Z,0.95
2023-04-04T12:18:10.462Z,1.10
2023-04-04T12:20:42.961Z,0.70
2023-04-04T12:23:12.105Z,1.50
2023-04-04T12:25:44.371Z,1.80
2023-04-04T12:28:14.899Z,2.03
2023-04-04T12:30:46.439Z,1.33
2023-04-04T12:33:15.702Z,1.00
2023-04-04T12:35:53.965Z,4.50
2023-04-04T12:38:23.734Z,1.98
2023-04-04T12:40:53.848Z,2.10
2023-04-04T12:43:23.043Z,3.83
2023-04-04T12:45:55.559Z,1.92
2023-04-04T12:48:30.071Z,1.25
2023-04-04T12:51:00.649Z,1.00
2023-04-04T12:53:30.723Z,1.40
2023-04-04T12:56:04.772Z,1.38
2023-04-04T13:01:25.468Z,1.50
2023-04-04T13:03:55.070Z,1.13
2023-04-04T13:06:24.331Z,1.50
2023-04-04T13:08:54.539Z,0.90
2023-04-04T13:11:24.202Z,1.00
2023-04-04T13:14:03.239Z,1.35
2023-04-04T13:16:35.885Z,1.83
2023-04-04T13:19:06.324Z,1.10
2023-04-04T13:21:36.513Z,1.70
2023-04-04T13:24:05.943Z,1.30
2023-04-04T13:26:35.207Z,1.25
2023-04-04T13:29:04.355Z,1.13
2023-04-04T13:31:34.897Z,1.25
2023-04-04T13:34:04.244Z,1.23
2023-04-04T13:36:33.455Z,0.98
2023-04-04T13:39:02.563Z,1.10
2023-04-04T13:41:33.713Z,1.83
2023-04-04T13:44:02.932Z,0.80
2023-04-04T13:46:33.771Z,1.10
2023-04-04T13:49:03.891Z,0.80
2023-04-04T13:51:33.016Z,1.70
2023-04-04T13:54:02.131Z,1.55
2023-04-04T13:56:31.257Z,0.80
2023-04-04T13:59:00.414Z,1.15
2023-04-04T14:01:29.723Z,1.13
2023-04-04T14:04:01.859Z,0.90
2023-04-04T14:06:32.726Z,1.25
2023-04-04T14:09:01.901Z,0.90
2023-04-04T14:11:31.492Z,1.17
2023-04-04T14:14:00.627Z,1.00
2023-04-04T14:16:29.825Z,1.20
2023-04-04T14:19:00.654Z,1.20
2023-04-04T14:21:29.972Z,1.33
2023-04-04T14:24:01.691Z,1.40
2023-04-04T14:26:31.533Z,1.13
2023-04-04T14:36:28.558Z,1.13
2023-04-04T14:38:59.042Z,1.20
2023-04-04T14:41:37.768Z,1.42
2023-04-04T14:44:40.765Z,1.80
2023-04-04T15:03:27.218Z,1.35
2023-04-04T15:05:56.768Z,1.10
2023-04-04T15:08:26.733Z,1.40
2023-04-04T15:10:57.451Z,1.13
2023-04-04T15:13:27.321Z,1.20
2023-04-04T15:15:56.513Z,1.10
2023-04-04T15:18:27.216Z,1.30
2023-04-04T15:20:58.777Z,1.27
2023-04-04T15:23:28.098Z,1.15
2023-04-04T15:25:57.534Z,2.13
2023-04-04T15:28:27.308Z,1.98
2023-04-04T15:30:56.673Z,1.30
2023-04-04T15:33:27.941Z,1.08
2023-04-04T15:35:57.419Z,1.58
2023-04-04T15:38:26.797Z,1.65
2023-04-04T15:40:55.937Z,1.23
2023-04-04T15:43:25.399Z,0.85
2023-04-04T15:45:55.017Z,1.30
2023-04-04T15:48:24.348Z,1.88
2023-04-04T15:50:59.961Z,1.67
2023-04-04T15:53:29.417Z,1.50
2023-04-04T15:56:02.187Z,1.90
2023-04-04T15:58:31.616Z,1.65
2023-04-04T16:01:01.698Z,1.27
2023-04-04T16:03:31.117Z,1.67
2023-04-04T16:06:02.466Z,1.70
2023-04-04T16:08:31.846Z,1.33
2023-04-04T16:11:02.721Z,1.15
2023-04-04T16:13:31.871Z,2.35
2023-04-04T16:16:01.826Z,1.65
2023-04-04T16:18:31.700Z,1.13
2023-04-04T16:21:05.024Z,2.00
2023-04-04T16:23:34.699Z,1.73
2023-04-04T16:26:04.118Z,1.52
2023-04-04T16:28:33.410Z,1.75
2023-04-04T16:31:02.696Z,1.40
2023-04-04T16:33:32.096Z,1.85
2023-04-04T16:36:03.059Z,1.42
2023-04-04T16:38:32.348Z,2.20
2023-04-04T16:41:02.530Z,1.65
2023-04-04T16:43:31.902Z,2.13
2023-04-04T16:46:01.528Z,1.52
2023-04-04T16:48:31.177Z,1.50
2023-04-04T16:51:03.204Z,1.90
2023-04-04T16:53:32.600Z,1.60
2023-04-04T16:56:02.301Z,1.42
2023-04-04T16:58:32.432Z,2.25
2023-04-04T17:01:01.856Z,1.95
2023-04-04T17:03:31.469Z,2.03
2023-04-04T17:06:04.755Z,1.90
2023-04-04T17:08:34.843Z,1.45
2023-04-04T17:11:07.858Z,1.40
2023-04-04T17:13:39.028Z,3.50
2023-04-04T17:16:08.736Z,6.35
2023-04-04T17:18:39.569Z,2.03
2023-04-04T17:21:13.454Z,2.38
2023-04-04T17:23:46.132Z,3.25
2023-04-04T17:26:17.380Z,2.10
2023-04-04T17:28:47.912Z,2.00
2023-04-04T17:31:18.816Z,1.90
2023-04-04T17:33:48.846Z,2.35
2023-04-04T17:36:20.486Z,2.85
2023-04-04T17:38:50.706Z,5.55
2023-04-04T17:41:21.362Z,2.20
2023-04-04T17:43:51.832Z,3.10
2023-04-04T17:46:21.194Z,3.30
2023-04-04T17:48:50.730Z,3.53
2023-04-04T17:51:21.973Z,4.88
2023-04-04T17:53:52.674Z,3.47
2023-04-04T17:56:22.428Z,4.93
2023-04-04T17:59:04.622Z,2.53
2023-04-04T18:01:35.088Z,1.77
2023-04-04T18:04:05.233Z,2.63
2023-04-04T18:09:25.260Z,2.50
2023-04-04T18:12:02.254Z,2.35
2023-04-04T18:14:33.895Z,2.13
2023-04-04T18:17:04.036Z,2.28
2023-04-04T18:19:35.653Z,3.00
2023-04-04T18:22:07.675Z,3.30
2023-04-04T19:26:27.128Z,3.83
2023-04-04T19:28:56.290Z,4.13
2023-04-04T19:31:30.064Z,4.05
2023-04-04T19:33:59.664Z,5.90
2023-04-04T19:36:29.675Z,5.47
2023-04-04T19:39:01.112Z,7.18
2023-04-04T19:41:36.145Z,6.20
2023-04-04T19:44:06.791Z,6.90
2023-04-04T19:46:36.127Z,5.80
2023-04-04T19:49:11.389Z,5.47
2023-04-04T19:51:42.778Z,6.07
2023-04-04T19:54:16.254Z,5.05
2023-04-04T19:56:51.409Z,4.65
2023-04-04T19:59:59.224Z,4.75
2023-04-04T20:02:54.706Z,5.07
2023-04-04T20:05:56.334Z,6.40
2023-04-04T20:08:25.938Z,5.50
2023-04-04T20:10:58.262Z,5.80
2023-04-04T20:13:28.684Z,7.18
2023-04-04T20:16:01.486Z,5.05
2023-04-04T20:18:32.656Z,5.80
2023-04-04T20:21:06.211Z,5.57
2023-04-04T20:23:45.606Z,5.00
2023-04-04T20:26:35.439Z,5.65
2023-04-04T20:29:08.679Z,6.65
2023-04-04T20:31:42.102Z,5.95
2023-04-04T20:34:41.693Z,5.93
2023-04-04T20:37:13.965Z,7.40
2023-04-04T20:39:47.982Z,5.80
2023-04-04T20:42:32.058Z,4.70
2023-04-04T20:45:28.555Z,5.30
2023-04-04T20:47:58.318Z,3.88
2023-04-04T20:50:47.375Z,5.35
2023-04-04T20:53:20.788Z,3.95
2023-04-04T20:55:51.555Z,4.68
2023-04-04T20:58:30.741Z,5.43
2023-04-04T21:01:02.435Z,5.45
2023-04-04T21:03:34.393Z,5.43
2023-04-04T21:06:13.663Z,5.85
2023-04-04T21:08:48.055Z,4.88
2023-04-04T21:11:25.104Z,3.97
2023-04-04T21:13:54.282Z,6.90
2023-04-04T21:16:27.269Z,5.93
2023-04-04T21:18:59.931Z,4.30
2023-04-04T21:21:29.631Z,5.35
2023-04-04T21:24:00.207Z,4.10
2023-04-04T21:26:32.027Z,5.28
2023-04-04T21:29:02.831Z,4.95
2023-04-04T21:31:38.479Z,6.68
2023-04-04T21:34:16.353Z,5.45
2023-04-04T21:36:46.277Z,4.93
2023-04-04T21:39:22.502Z,5.55
2023-04-04T21:41:53.528Z,6.25
2023-04-04T21:44:22.604Z,5.35
2023-04-04T21:46:54.481Z,5.45
2023-04-04T21:49:24.324Z,5.13
2023-04-04T21:51:53.926Z,5.03
2023-04-04T21:54:23.129Z,5.75
2023-04-04T21:56:53.214Z,4.70
2023-04-04T21:59:22.382Z,5.30
2023-04-04T22:01:53.545Z,4.72
2023-04-04T22:04:22.600Z,6.00
2023-04-04T22:06:51.865Z,5.70
2023-04-04T22:09:22.776Z,4.97
2023-04-04T22:11:53.898Z,4.78
2023-04-04T22:14:23.921Z,5.93
2023-04-04T22:16:58.996Z,6.30
2023-04-04T22:19:34.761Z,5.95
2023-04-04T22:22:03.857Z,6.18
2023-04-04T22:24:34.637Z,5.68
2023-04-04T22:27:03.947Z,5.10
2023-04-04T22:29:36.161Z,5.60
2023-04-04T22:32:07.315Z,4.30
2023-04-04T22:34:37.204Z,6.55
2023-04-04T22:37:06.757Z,4.32
2023-04-04T22:39:35.831Z,4.70
2023-04-04T22:42:05.468Z,6.28
2023-04-04T22:44:34.672Z,7.60
2023-04-04T22:47:06.329Z,6.10
2023-04-04T22:49:37.975Z,7.40
2023-04-04T22:52:07.413Z,5.93
2023-04-04T22:54:36.533Z,7.13
2023-04-04T22:57:05.989Z,7.25
2023-04-04T22:59:35.149Z,5.07
2023-04-04T23:02:05.678Z,5.57
2023-04-04T23:04:34.790Z,5.07
2023-04-04T23:07:04.373Z,5.82
2023-04-04T23:09:34.492Z,6.07
2023-04-04T23:12:03.483Z,5.70
2023-04-04T23:14:32.489Z,5.93
2023-04-04T23:17:01.506Z,5.30
2023-04-04T23:19:32.089Z,5.63
2023-04-04T23:22:01.252Z,5.35
2023-04-04T23:24:30.258Z,5.13
2023-04-04T23:27:01.365Z,5.47
2023-04-04T23:29:30.571Z,5.50
2023-04-04T23:31:59.657Z,4.95
2023-04-04T23:34:28.659Z,4.10
2023-04-04T23:36:59.189Z,5.78
2023-04-04T23:39:28.801Z,4.95
2023-04-04T23:41:58.416Z,5.18
2023-04-04T23:44:27.712Z,4.50
2023-04-04T23:46:57.088Z,4.05
2023-04-04T23:49:26.352Z,3.65
2023-04-04T23:51:55.541Z,4.32
2023-04-04T23:54:26.867Z,3.42
2023-04-04T23:56:56.196Z,3.65
2023-04-04T23:59:50.071Z,4.53
